sensor_id;sensor_type;location;lat;lon;timestamp;temperature;humidity
16040;DHT22;8124;48.634;8.120;2023-05-07T00:03:09;18.20;99.90
16040;DHT22;8124;48.634;8.120;2023-05-07T00:08:13;18.40;99.90
16040;DHT22;8124;48.634;8.120;2023-05-07T00:13:16;18.20;99.90
16040;DHT22;8124;48.634;8.120;2023-05-07T00:18:20;18.20;99.90
16040;DHT22;8124;48.634;8.120;2023-05-07T00:23:24;18.00;99.90
16040;DHT22;8124;48.634;8.120;2023-05-07T00:28:27;17.90;99.90
16040;DHT22;8124;48.634;8.120;2023-05-07T00:33:31;17.50;99.90
16040;DHT22;8124;48.634;8.120;2023-05-07T00:38:34;17.70;99.90
16040;DHT22;8124;48.634;8.120;2023-05-07T00:43:38;17.80;99.90
16040;DHT22;8124;48.634;8.120;2023-05-07T00:48:42;17.90;99.90
16040;DHT22;8124;48.634;8.120;2023-05-07T00:53:46;17.80;99.90
16040;DHT22;8124;48.634;8.120;2023-05-07T00:58:49;17.50;99.90
16040;DHT22;8124;48.634;8.120;2023-05-07T01:03:53;17.40;99.90
16040;DHT22;8124;48.634;8.120;2023-05-07T01:08:58;17.60;99.90
16040;DHT22;8124;48.634;8.120;2023-05-07T01:14:01;17.60;99.90
16040;DHT22;8124;48.634;8.120;2023-05-07T01:19:06;17.60;99.90
16040;DHT22;8124;48.634;8.120;2023-05-07T01:24:15;17.70;99.90
16040;DHT22;8124;48.634;8.120;2023-05-07T01:29:19;17.50;99.90
16040;DHT22;8124;48.634;8.120;2023-05-07T01:34:23;17.20;99.90
16040;DHT22;8124;48.634;8.120;2023-05-07T01:39:30;17.40;99.90
16040;DHT22;8124;48.634;8.120;2023-05-07T01:44:33;17.40;99.90
16040;DHT22;8124;48.634;8.120;2023-05-07T01:49:36;17.40;99.90
16040;DHT22;8124;48.634;8.120;2023-05-07T01:54:41;17.40;99.90
16040;DHT22;8124;48.634;8.120;2023-05-07T01:59:44;17.20;99.90
16040;DHT22;8124;48.634;8.120;2023-05-07T02:04:47;17.30;99.90
16040;DHT22;8124;48.634;8.120;2023-05-07T02:09:53;17.30;99.90
16040;DHT22;8124;48.634;8.120;2023-05-07T02:14:57;17.30;99.90
16040;DHT22;8124;48.634;8.120;2023-05-07T02:20:00;17.40;99.90
16040;DHT22;8124;48.634;8.120;2023-05-07T02:25:04;17.20;99.90
16040;DHT22;8124;48.634;8.120;2023-05-07T02:30:08;17.10;99.90
16040;DHT22;8124;48.634;8.120;2023-05-07T02:35:12;16.40;99.90
16040;DHT22;8124;48.634;8.120;2023-05-07T02:40:16;16.50;99.90
16040;DHT22;8124;48.634;8.120;2023-05-07T02:45:19;16.60;99.90
16040;DHT22;8124;48.634;8.120;2023-05-07T02:50:26;16.40;99.90
16040;DHT22;8124;48.634;8.120;2023-05-07T02:55:30;16.40;99.90
16040;DHT22;8124;48.634;8.120;2023-05-07T03:00:34;16.40;99.90
16040;DHT22;8124;48.634;8.120;2023-05-07T03:05:57;16.50;99.90
16040;DHT22;8124;48.634;8.120;2023-05-07T03:11:01;16.60;99.90
16040;DHT22;8124;48.634;8.120;2023-05-07T03:16:05;16.50;99.90
16040;DHT22;8124;48.634;8.120;2023-05-07T03:21:08;16.60;99.90
16040;DHT22;8124;48.634;8.120;2023-05-07T03:26:12;16.70;99.90
16040;DHT22;8124;48.634;8.120;2023-05-07T03:31:16;16.50;99.90
16040;DHT22;8124;48.634;8.120;2023-05-07T03:36:20;16.10;99.90
16040;DHT22;8124;48.634;8.120;2023-05-07T03:41:25;16.30;99.90
16040;DHT22;8124;48.634;8.120;2023-05-07T03:46:40;16.20;99.90
16040;DHT22;8124;48.634;8.120;2023-05-07T03:51:45;16.10;99.90
16040;DHT22;8124;48.634;8.120;2023-05-07T03:56:49;16.00;99.90
16040;DHT22;8124;48.634;8.120;2023-05-07T04:01:52;16.20;99.90
16040;DHT22;8124;48.634;8.120;2023-05-07T04:06:57;16.20;99.90
16040;DHT22;8124;48.634;8.120;2023-05-07T04:12:04;16.10;99.90
16040;DHT22;8124;48.634;8.120;2023-05-07T04:17:08;16.00;99.90
16040;DHT22;8124;48.634;8.120;2023-05-07T04:22:13;15.80;99.90
16040;DHT22;8124;48.634;8.120;2023-05-07T04:27:17;15.60;99.90
16040;DHT22;8124;48.634;8.120;2023-05-07T04:32:20;15.80;99.90
16040;DHT22;8124;48.634;8.120;2023-05-07T04:37:25;16.00;99.90
16040;DHT22;8124;48.634;8.120;2023-05-07T04:42:30;16.00;99.90
16040;DHT22;8124;48.634;8.120;2023-05-07T04:47:34;15.90;99.90
16040;DHT22;8124;48.634;8.120;2023-05-07T04:52:37;16.00;99.90
16040;DHT22;8124;48.634;8.120;2023-05-07T04:57:42;15.90;99.90
16040;DHT22;8124;48.634;8.120;2023-05-07T05:02:47;15.90;99.90
16040;DHT22;8124;48.634;8.120;2023-05-07T05:07:54;15.10;99.90
16040;DHT22;8124;48.634;8.120;2023-05-07T05:12:59;15.40;99.90
16040;DHT22;8124;48.634;8.120;2023-05-07T05:18:02;15.60;99.90
16040;DHT22;8124;48.634;8.120;2023-05-07T05:23:07;15.50;99.90
16040;DHT22;8124;48.634;8.120;2023-05-07T05:28:13;15.60;99.90
16040;DHT22;8124;48.634;8.120;2023-05-07T05:33:16;15.70;99.90
16040;DHT22;8124;48.634;8.120;2023-05-07T05:38:19;16.00;99.90
16040;DHT22;8124;48.634;8.120;2023-05-07T05:43:25;16.30;99.90
16040;DHT22;8124;48.634;8.120;2023-05-07T05:48:29;16.50;99.90
16040;DHT22;8124;48.634;8.120;2023-05-07T05:53:34;16.50;99.90
16040;DHT22;8124;48.634;8.120;2023-05-07T05:58:40;16.80;99.90
16040;DHT22;8124;48.634;8.120;2023-05-07T06:03:43;16.90;99.90
16040;DHT22;8124;48.634;8.120;2023-05-07T06:08:49;17.00;99.90
16040;DHT22;8124;48.634;8.120;2023-05-07T06:13:59;17.20;99.90
16040;DHT22;8124;48.634;8.120;2023-05-07T06:19:11;17.20;99.90
16040;DHT22;8124;48.634;8.120;2023-05-07T06:24:15;17.20;99.90
16040;DHT22;8124;48.634;8.120;2023-05-07T06:29:20;17.30;99.90
16040;DHT22;8124;48.634;8.120;2023-05-07T06:34:23;17.20;99.90
16040;DHT22;8124;48.634;8.120;2023-05-07T06:39:26;17.40;99.90
16040;DHT22;8124;48.634;8.120;2023-05-07T06:44:30;17.40;99.90
16040;DHT22;8124;48.634;8.120;2023-05-07T06:49:41;17.50;99.90
16040;DHT22;8124;48.634;8.120;2023-05-07T06:54:43;17.50;99.90
16040;DHT22;8124;48.634;8.120;2023-05-07T06:59:51;17.50;99.90
16040;DHT22;8124;48.634;8.120;2023-05-07T07:04:54;17.70;99.90
16040;DHT22;8124;48.634;8.120;2023-05-07T07:09:58;17.60;99.90
16040;DHT22;8124;48.634;8.120;2023-05-07T07:15:06;17.70;99.90
16040;DHT22;8124;48.634;8.120;2023-05-07T07:20:10;17.60;99.90
16040;DHT22;8124;48.634;8.120;2023-05-07T07:25:15;17.80;99.90
16040;DHT22;8124;48.634;8.120;2023-05-07T07:30:19;18.00;99.90
16040;DHT22;8124;48.634;8.120;2023-05-07T07:35:23;18.40;99.90
16040;DHT22;8124;48.634;8.120;2023-05-07T07:40:36;18.60;99.90
16040;DHT22;8124;48.634;8.120;2023-05-07T07:45:42;18.70;99.90
16040;DHT22;8124;48.634;8.120;2023-05-07T07:50:48;18.90;99.90
16040;DHT22;8124;48.634;8.120;2023-05-07T07:55:52;18.90;99.90
16040;DHT22;8124;48.634;8.120;2023-05-07T08:01:04;19.10;99.90
16040;DHT22;8124;48.634;8.120;2023-05-07T08:06:07;19.30;99.90
16040;DHT22;8124;48.634;8.120;2023-05-07T08:11:10;19.70;99.90
16040;DHT22;8124;48.634;8.120;2023-05-07T08:16:15;19.50;99.90
16040;DHT22;8124;48.634;8.120;2023-05-07T08:21:18;19.60;99.90
16040;DHT22;8124;48.634;8.120;2023-05-07T08:26:22;19.90;99.90
16040;DHT22;8124;48.634;8.120;2023-05-07T08:31:26;20.20;99.90
16040;DHT22;8124;48.634;8.120;2023-05-07T08:36:29;20.10;99.90
16040;DHT22;8124;48.634;8.120;2023-05-07T08:41:32;20.10;99.90
16040;DHT22;8124;48.634;8.120;2023-05-07T08:46:38;19.90;99.90
16040;DHT22;8124;48.634;8.120;2023-05-07T08:51:50;20.10;99.90
16040;DHT22;8124;48.634;8.120;2023-05-07T08:56:54;20.10;99.90
16040;DHT22;8124;48.634;8.120;2023-05-07T09:02:07;20.10;99.90
16040;DHT22;8124;48.634;8.120;2023-05-07T09:07:13;20.70;99.90
16040;DHT22;8124;48.634;8.120;2023-05-07T09:12:18;20.70;99.90
16040;DHT22;8124;48.634;8.120;2023-05-07T09:17:22;20.70;99.90
16040;DHT22;8124;48.634;8.120;2023-05-07T09:22:27;20.70;99.90
16040;DHT22;8124;48.634;8.120;2023-05-07T09:27:35;20.80;99.90
16040;DHT22;8124;48.634;8.120;2023-05-07T09:32:40;20.90;99.90
16040;DHT22;8124;48.634;8.120;2023-05-07T09:37:50;20.90;99.90
16040;DHT22;8124;48.634;8.120;2023-05-07T09:42:54;21.00;99.90
16040;DHT22;8124;48.634;8.120;2023-05-07T09:48:00;21.10;99.90
16040;DHT22;8124;48.634;8.120;2023-05-07T09:53:05;21.20;99.90
16040;DHT22;8124;48.634;8.120;2023-05-07T09:58:12;21.60;99.90
16040;DHT22;8124;48.634;8.120;2023-05-07T10:03:24;21.70;99.90
16040;DHT22;8124;48.634;8.120;2023-05-07T10:08:42;22.10;99.90
16040;DHT22;8124;48.634;8.120;2023-05-07T10:13:46;22.20;99.90
16040;DHT22;8124;48.634;8.120;2023-05-07T10:18:52;21.90;99.90
16040;DHT22;8124;48.634;8.120;2023-05-07T10:23:59;22.00;99.90
16040;DHT22;8124;48.634;8.120;2023-05-07T10:29:07;21.90;99.90
16040;DHT22;8124;48.634;8.120;2023-05-07T10:34:18;21.80;99.90
16040;DHT22;8124;48.634;8.120;2023-05-07T10:39:21;22.00;99.90
16040;DHT22;8124;48.634;8.120;2023-05-07T10:44:27;22.40;99.90
16040;DHT22;8124;48.634;8.120;2023-05-07T10:50:20;22.20;99.90
16040;DHT22;8124;48.634;8.120;2023-05-07T10:55:28;22.60;99.90
16040;DHT22;8124;48.634;8.120;2023-05-07T11:00:42;22.60;99.90
16040;DHT22;8124;48.634;8.120;2023-05-07T11:06:12;22.90;99.90
16040;DHT22;8124;48.634;8.120;2023-05-07T11:11:44;22.90;99.90
16040;DHT22;8124;48.634;8.120;2023-05-07T11:17:04;22.90;99.90
16040;DHT22;8124;48.634;8.120;2023-05-07T11:22:36;23.10;99.90
16040;DHT22;8124;48.634;8.120;2023-05-07T11:27:53;23.60;99.90
16040;DHT22;8124;48.634;8.120;2023-05-07T11:32:57;23.90;99.90
16040;DHT22;8124;48.634;8.120;2023-05-07T11:38:02;23.80;99.90
16040;DHT22;8124;48.634;8.120;2023-05-07T11:43:10;23.70;99.90
16040;DHT22;8124;48.634;8.120;2023-05-07T11:48:14;23.70;99.90
16040;DHT22;8124;48.634;8.120;2023-05-07T11:53:19;23.70;99.90
16040;DHT22;8124;48.634;8.120;2023-05-07T11:58:24;23.70;99.90
16040;DHT22;8124;48.634;8.120;2023-05-07T12:03:27;23.80;99.90
16040;DHT22;8124;48.634;8.120;2023-05-07T12:08:38;23.70;99.90
16040;DHT22;8124;48.634;8.120;2023-05-07T12:13:42;23.70;99.90
16040;DHT22;8124;48.634;8.120;2023-05-07T12:18:46;23.70;99.90
16040;DHT22;8124;48.634;8.120;2023-05-07T12:23:51;23.80;99.90
16040;DHT22;8124;48.634;8.120;2023-05-07T12:28:54;23.80;99.90
16040;DHT22;8124;48.634;8.120;2023-05-07T12:34:00;23.60;99.90
16040;DHT22;8124;48.634;8.120;2023-05-07T12:39:05;23.60;99.90
16040;DHT22;8124;48.634;8.120;2023-05-07T12:44:09;23.70;99.90
16040;DHT22;8124;48.634;8.120;2023-05-07T12:49:14;23.70;99.90
16040;DHT22;8124;48.634;8.120;2023-05-07T12:54:29;23.90;99.90
16040;DHT22;8124;48.634;8.120;2023-05-07T12:59:35;23.80;99.90
16040;DHT22;8124;48.634;8.120;2023-05-07T13:04:38;24.00;99.90
16040;DHT22;8124;48.634;8.120;2023-05-07T13:09:45;24.00;99.90
16040;DHT22;8124;48.634;8.120;2023-05-07T13:14:49;24.10;99.90
16040;DHT22;8124;48.634;8.120;2023-05-07T13:19:56;24.10;99.90
16040;DHT22;8124;48.634;8.120;2023-05-07T13:25:00;23.90;99.90
16040;DHT22;8124;48.634;8.120;2023-05-07T13:30:04;23.90;99.90
16040;DHT22;8124;48.634;8.120;2023-05-07T13:35:08;23.80;99.90
16040;DHT22;8124;48.634;8.120;2023-05-07T13:40:13;23.60;99.90
16040;DHT22;8124;48.634;8.120;2023-05-07T13:45:17;23.70;99.90
16040;DHT22;8124;48.634;8.120;2023-05-07T13:50:27;24.00;99.90
16040;DHT22;8124;48.634;8.120;2023-05-07T13:55:32;24.00;99.90
16040;DHT22;8124;48.634;8.120;2023-05-07T14:00:37;24.20;99.90
16040;DHT22;8124;48.634;8.120;2023-05-07T14:05:40;24.10;99.90
16040;DHT22;8124;48.634;8.120;2023-05-07T14:10:45;24.00;99.90
16040;DHT22;8124;48.634;8.120;2023-05-07T14:15:47;23.80;99.90
16040;DHT22;8124;48.634;8.120;2023-05-07T14:20:50;24.00;99.90
16040;DHT22;8124;48.634;8.120;2023-05-07T14:25:55;24.10;99.90
16040;DHT22;8124;48.634;8.120;2023-05-07T14:30:58;24.00;99.90
16040;DHT22;8124;48.634;8.120;2023-05-07T14:36:02;23.70;99.90
16040;DHT22;8124;48.634;8.120;2023-05-07T14:41:06;23.80;99.90
16040;DHT22;8124;48.634;8.120;2023-05-07T14:46:09;23.70;99.90
16040;DHT22;8124;48.634;8.120;2023-05-07T14:51:12;23.70;99.90
16040;DHT22;8124;48.634;8.120;2023-05-07T14:56:17;23.60;99.90
16040;DHT22;8124;48.634;8.120;2023-05-07T15:01:20;23.50;99.90
16040;DHT22;8124;48.634;8.120;2023-05-07T15:06:23;23.50;99.90
16040;DHT22;8124;48.634;8.120;2023-05-07T15:11:28;23.40;99.90
16040;DHT22;8124;48.634;8.120;2023-05-07T15:16:31;23.10;99.90
16040;DHT22;8124;48.634;8.120;2023-05-07T15:21:35;22.90;99.90
16040;DHT22;8124;48.634;8.120;2023-05-07T15:26:40;22.70;99.90
16040;DHT22;8124;48.634;8.120;2023-05-07T15:31:43;22.50;99.90
16040;DHT22;8124;48.634;8.120;2023-05-07T15:36:46;22.10;99.90
16040;DHT22;8124;48.634;8.120;2023-05-07T15:41:50;20.80;99.90
16040;DHT22;8124;48.634;8.120;2023-05-07T15:46:53;20.80;99.90
16040;DHT22;8124;48.634;8.120;2023-05-07T15:51:57;20.60;99.90
16040;DHT22;8124;48.634;8.120;2023-05-07T15:57:01;20.80;99.90
16040;DHT22;8124;48.634;8.120;2023-05-07T16:02:08;20.30;99.90
16040;DHT22;8124;48.634;8.120;2023-05-07T16:07:11;20.40;99.90
16040;DHT22;8124;48.634;8.120;2023-05-07T16:12:15;20.30;99.90
16040;DHT22;8124;48.634;8.120;2023-05-07T16:17:18;20.10;99.90
16040;DHT22;8124;48.634;8.120;2023-05-07T16:22:27;20.10;99.90
16040;DHT22;8124;48.634;8.120;2023-05-07T16:27:32;20.30;99.90
16040;DHT22;8124;48.634;8.120;2023-05-07T16:32:35;20.50;99.90
16040;DHT22;8124;48.634;8.120;2023-05-07T16:37:39;20.50;99.90
16040;DHT22;8124;48.634;8.120;2023-05-07T16:42:43;20.50;99.90
16040;DHT22;8124;48.634;8.120;2023-05-07T16:47:46;20.50;99.90
16040;DHT22;8124;48.634;8.120;2023-05-07T16:52:49;20.70;99.90
16040;DHT22;8124;48.634;8.120;2023-05-07T16:57:53;20.70;99.90
16040;DHT22;8124;48.634;8.120;2023-05-07T17:02:56;20.80;99.90
16040;DHT22;8124;48.634;8.120;2023-05-07T17:07:59;20.70;99.90
16040;DHT22;8124;48.634;8.120;2023-05-07T17:13:03;20.80;99.90
16040;DHT22;8124;48.634;8.120;2023-05-07T17:18:06;20.90;99.90
16040;DHT22;8124;48.634;8.120;2023-05-07T17:23:09;21.30;99.90
16040;DHT22;8124;48.634;8.120;2023-05-07T17:28:14;21.50;99.90
16040;DHT22;8124;48.634;8.120;2023-05-07T17:33:17;21.40;99.90
16040;DHT22;8124;48.634;8.120;2023-05-07T17:38:23;21.40;99.90
16040;DHT22;8124;48.634;8.120;2023-05-07T17:43:28;21.30;99.90
16040;DHT22;8124;48.634;8.120;2023-05-07T17:48:32;21.20;99.90
16040;DHT22;8124;48.634;8.120;2023-05-07T17:53:35;21.10;99.90
16040;DHT22;8124;48.634;8.120;2023-05-07T17:58:40;21.10;99.90
16040;DHT22;8124;48.634;8.120;2023-05-07T18:03:48;21.40;99.90
16040;DHT22;8124;48.634;8.120;2023-05-07T18:08:51;21.50;99.90
16040;DHT22;8124;48.634;8.120;2023-05-07T18:13:57;21.40;99.90
16040;DHT22;8124;48.634;8.120;2023-05-07T18:19:00;21.00;99.90
16040;DHT22;8124;48.634;8.120;2023-05-07T18:24:03;20.80;99.90
16040;DHT22;8124;48.634;8.120;2023-05-07T18:29:10;20.70;99.90
16040;DHT22;8124;48.634;8.120;2023-05-07T18:34:13;20.90;99.90
16040;DHT22;8124;48.634;8.120;2023-05-07T18:39:16;20.90;99.90
16040;DHT22;8124;48.634;8.120;2023-05-07T18:44:21;21.10;99.90
16040;DHT22;8124;48.634;8.120;2023-05-07T18:49:24;21.10;99.90
16040;DHT22;8124;48.634;8.120;2023-05-07T18:54:26;21.20;99.90
16040;DHT22;8124;48.634;8.120;2023-05-07T18:59:31;21.20;99.90
16040;DHT22;8124;48.634;8.120;2023-05-07T19:04:34;21.00;99.90
16040;DHT22;8124;48.634;8.120;2023-05-07T19:09:38;21.10;99.90
16040;DHT22;8124;48.634;8.120;2023-05-07T19:14:55;21.00;99.90
16040;DHT22;8124;48.634;8.120;2023-05-07T19:19:58;20.90;99.90
16040;DHT22;8124;48.634;8.120;2023-05-07T19:25:01;20.60;99.90
16040;DHT22;8124;48.634;8.120;2023-05-07T19:30:08;20.30;99.90
16040;DHT22;8124;48.634;8.120;2023-05-07T19:35:11;20.70;99.90
16040;DHT22;8124;48.634;8.120;2023-05-07T19:40:15;20.70;99.90
16040;DHT22;8124;48.634;8.120;2023-05-07T19:45:19;20.50;99.90
16040;DHT22;8124;48.634;8.120;2023-05-07T19:50:22;20.10;99.90
16040;DHT22;8124;48.634;8.120;2023-05-07T19:55:25;19.50;99.90
16040;DHT22;8124;48.634;8.120;2023-05-07T20:00:29;19.60;99.90
16040;DHT22;8124;48.634;8.120;2023-05-07T20:05:34;19.80;99.90
16040;DHT22;8124;48.634;8.120;2023-05-07T20:10:43;19.90;99.90
16040;DHT22;8124;48.634;8.120;2023-05-07T20:15:47;19.90;99.90
16040;DHT22;8124;48.634;8.120;2023-05-07T20:20:50;19.90;99.90
16040;DHT22;8124;48.634;8.120;2023-05-07T20:25:53;19.90;99.90
16040;DHT22;8124;48.634;8.120;2023-05-07T20:30:57;19.90;99.90
16040;DHT22;8124;48.634;8.120;2023-05-07T20:36:00;19.90;99.90
16040;DHT22;8124;48.634;8.120;2023-05-07T20:41:05;19.90;99.90
16040;DHT22;8124;48.634;8.120;2023-05-07T20:46:09;19.90;99.90
16040;DHT22;8124;48.634;8.120;2023-05-07T20:51:12;19.70;99.90
16040;DHT22;8124;48.634;8.120;2023-05-07T20:56:16;19.30;99.90
16040;DHT22;8124;48.634;8.120;2023-05-07T21:01:20;18.70;99.90
16040;DHT22;8124;48.634;8.120;2023-05-07T21:06:23;18.90;99.90
16040;DHT22;8124;48.634;8.120;2023-05-07T21:11:26;18.50;99.90
16040;DHT22;8124;48.634;8.120;2023-05-07T21:16:30;18.20;99.90
16040;DHT22;8124;48.634;8.120;2023-05-07T21:21:33;18.60;99.90
16040;DHT22;8124;48.634;8.120;2023-05-07T21:26:36;18.90;99.90
16040;DHT22;8124;48.634;8.120;2023-05-07T21:31:41;19.10;99.90
16040;DHT22;8124;48.634;8.120;2023-05-07T21:36:44;19.20;99.90
16040;DHT22;8124;48.634;8.120;2023-05-07T21:41:47;19.30;99.90
16040;DHT22;8124;48.634;8.120;2023-05-07T21:46:51;19.40;99.90
16040;DHT22;8124;48.634;8.120;2023-05-07T21:51:54;19.40;99.90
16040;DHT22;8124;48.634;8.120;2023-05-07T21:56:57;19.40;99.90
16040;DHT22;8124;48.634;8.120;2023-05-07T22:02:01;19.20;99.90
16040;DHT22;8124;48.634;8.120;2023-05-07T22:07:04;19.30;99.90
16040;DHT22;8124;48.634;8.120;2023-05-07T22:12:07;19.30;99.90
16040;DHT22;8124;48.634;8.120;2023-05-07T22:17:11;19.30;99.90
16040;DHT22;8124;48.634;8.120;2023-05-07T22:22:14;19.30;99.90
16040;DHT22;8124;48.634;8.120;2023-05-07T22:27:19;19.30;99.90
16040;DHT22;8124;48.634;8.120;2023-05-07T22:32:23;19.00;99.90
16040;DHT22;8124;48.634;8.120;2023-05-07T22:37:26;18.90;99.90
16040;DHT22;8124;48.634;8.120;2023-05-07T22:42:29;18.70;99.90
16040;DHT22;8124;48.634;8.120;2023-05-07T22:47:33;18.90;99.90
16040;DHT22;8124;48.634;8.120;2023-05-07T22:52:36;19.00;99.90
16040;DHT22;8124;48.634;8.120;2023-05-07T22:57:39;19.10;99.90
16040;DHT22;8124;48.634;8.120;2023-05-07T23:02:43;19.20;99.90
16040;DHT22;8124;48.634;8.120;2023-05-07T23:07:47;19.10;99.90
16040;DHT22;8124;48.634;8.120;2023-05-07T23:12:50;19.20;99.90
16040;DHT22;8124;48.634;8.120;2023-05-07T23:17:54;19.10;99.90
16040;DHT22;8124;48.634;8.120;2023-05-07T23:22:57;19.00;99.90
16040;DHT22;8124;48.634;8.120;2023-05-07T23:28:01;18.90;99.90
16040;DHT22;8124;48.634;8.120;2023-05-07T23:33:05;19.10;99.90
16040;DHT22;8124;48.634;8.120;2023-05-07T23:38:08;18.90;99.90
16040;DHT22;8124;48.634;8.120;2023-05-07T23:43:11;19.00;99.90
16040;DHT22;8124;48.634;8.120;2023-05-07T23:48:15;19.10;99.90
16040;DHT22;8124;48.634;8.120;2023-05-07T23:53:18;19.10;99.90
16040;DHT22;8124;48.634;8.120;2023-05-07T23:58:21;19.10;99.90
